Time;durP1;ratioP1;P1;durP2;ratioP2;P2;SDS_P1;SDS_P2;PMS_P1;PMS_P2;Temp;Humidity;BMP_temperature;BMP_pressure;BME280_temperature;BME280_humidity;BME280_pressure;Samples;Min_cycle;Max_cycle;Signal;HPM_P1;HPM_P2
2022/05/27 00:00:17;;;;;;;8.27;2.47;;;19.30;99.90;;;;;;5035377;28;20404;-55
2022/05/27 00:02:43;;;;;;;3.72;2.20;;;19.20;99.90;;;;;;5035221;28;20057;-55
2022/05/27 00:05:09;;;;;;;5.45;2.75;;;19.20;99.90;;;;;;5035435;28;20033;-56
2022/05/27 00:07:35;;;;;;;7.00;2.30;;;18.70;99.90;;;;;;5035186;28;20033;-57
2022/05/27 00:10:02;;;;;;;5.03;2.58;;;;;;;;;;5035155;28;20397;-54
2022/05/27 00:12:28;;;;;;;4.57;2.13;;;18.00;99.90;;;;;;5035302;28;20167;-56
2022/05/27 00:14:54;;;;;;;6.90;2.67;;;17.80;99.90;;;;;;5035151;28;20489;-57
2022/05/27 00:17:20;;;;;;;6.40;2.35;;;17.70;99.90;;;;;;5034825;28;20531;-55
2022/05/27 00:19:46;;;;;;;5.97;2.63;;;;;;;;;;5034126;28;20033;-56
2022/05/27 00:22:12;;;;;;;3.55;2.20;;;17.50;99.90;;;;;;5034866;28;20030;-59
2022/05/27 00:24:38;;;;;;;7.93;2.50;;;17.40;99.90;;;;;;5034663;28;20057;-55
2022/05/27 00:27:08;;;;;;;4.60;2.47;;;17.50;99.90;;;;;;5034802;28;20040;-58
2022/05/27 00:29:34;;;;;;;6.53;2.50;;;17.60;99.90;;;;;;5034925;28;20037;-56
2022/05/27 00:32:01;;;;;;;6.43;3.08;;;17.80;99.90;;;;;;5034754;28;20033;-56
2022/05/27 00:34:27;;;;;;;5.32;3.00;;;17.90;99.90;;;;;;5034721;28;20604;-57
2022/05/27 00:36:52;;;;;;;4.55;2.80;;;17.90;99.90;;;;;;5034789;28;20029;-55
2022/05/27 00:39:18;;;;;;;4.10;2.78;;;17.70;99.90;;;;;;5034624;28;20541;-58
2022/05/27 00:41:44;;;;;;;7.40;3.20;;;17.70;99.90;;;;;;5034603;28;20029;-55
2022/05/27 00:44:10;;;;;;;3.42;2.40;;;17.70;99.90;;;;;;5034389;28;20444;-55
2022/05/27 00:46:39;;;;;;;5.15;2.53;;;17.60;99.90;;;;;;5032616;28;20555;-56
2022/05/27 00:49:11;;;;;;;5.43;2.65;;;17.70;99.90;;;;;;5034432;28;20029;-54
2022/05/27 00:51:45;;;;;;;6.10;2.83;;;17.80;99.90;;;;;;5034741;28;20033;-58
2022/05/27 00:54:17;;;;;;;6.15;2.70;;;17.90;99.90;;;;;;5034371;28;20030;-55
2022/05/27 00:56:47;;;;;;;12.02;3.22;;;17.70;99.90;;;;;;5034232;28;20112;-56
2022/05/27 00:59:30;;;;;;;10.50;3.55;;;17.50;99.90;;;;;;5034139;28;20034;-54
2022/05/27 01:01:55;;;;;;;4.45;3.00;;;17.40;99.90;;;;;;5034312;28;20037;-57
2022/05/27 01:04:23;;;;;;;6.80;3.50;;;17.40;99.90;;;;;;5034168;28;20164;-56
2022/05/27 01:06:48;;;;;;;4.03;3.03;;;17.40;99.90;;;;;;5048852;28;20033;-54
2022/05/27 01:09:14;;;;;;;4.68;2.80;;;17.30;99.90;;;;;;5034093;28;20056;-56
2022/05/27 01:12:07;;;;;;;7.43;3.10;;;17.30;99.90;;;;;;5034325;28;20036;-57
2022/05/27 01:15:08;;;;;;;5.85;2.67;;;17.40;99.90;;;;;;5033965;28;20034;-56
2022/05/27 01:17:46;;;;;;;9.80;2.80;;;17.70;99.90;;;;;;5033769;28;20528;-57
2022/05/27 01:20:42;;;;;;;6.00;2.60;;;17.90;99.90;;;;;;5033935;28;20464;-57
2022/05/27 01:23:29;;;;;;;5.57;2.60;;;17.90;99.90;;;;;;5033729;28;20363;-56
2022/05/27 01:25:55;;;;;;;10.23;3.33;;;17.80;99.90;;;;;;5047391;28;20061;-56
2022/05/27 01:28:44;;;;;;;5.85;3.20;;;17.90;99.90;;;;;;5033964;28;20385;-55
2022/05/27 01:31:35;;;;;;;5.43;2.95;;;18.20;99.90;;;;;;5033304;28;20044;-55
2022/05/27 01:34:16;;;;;;;8.10;4.20;;;18.20;99.90;;;;;;5033771;28;20032;-57
2022/05/27 01:36:53;;;;;;;6.25;2.97;;;18.30;99.90;;;;;;5033529;28;20359;-54
2022/05/27 01:39:38;;;;;;;6.13;3.00;;;18.50;99.90;;;;;;5033612;28;20065;-55
2022/05/27 01:42:27;;;;;;;10.27;3.33;;;18.40;99.90;;;;;;5033577;28;20037;-55
2022/05/27 01:45:06;;;;;;;6.43;2.92;;;18.40;99.90;;;;;;5033386;28;20393;-55
2022/05/27 01:47:50;;;;;;;8.10;3.05;;;18.40;99.90;;;;;;5033199;28;20551;-55
2022/05/27 01:50:34;;;;;;;7.72;3.40;;;18.70;99.90;;;;;;5033454;28;20029;-58
2022/05/27 01:53:25;;;;;;;5.75;2.90;;;18.50;99.90;;;;;;5033333;28;20037;-57
2022/05/27 01:56:23;;;;;;;7.28;3.17;;;18.30;99.90;;;;;;5033290;28;20072;-56
2022/05/27 01:58:56;;;;;;;5.47;2.67;;;18.50;99.90;;;;;;5031129;28;20041;-55
2022/05/27 02:01:26;;;;;;;5.93;3.45;;;18.30;99.90;;;;;;5014753;28;20489;-58
2022/05/27 02:04:02;;;;;;;6.47;2.85;;;18.30;99.90;;;;;;5028252;28;20049;-54
2022/05/27 02:06:55;;;;;;;6.22;3.10;;;18.30;99.90;;;;;;5031066;28;20041;-58
2022/05/27 02:09:33;;;;;;;5.68;3.00;;;18.20;99.90;;;;;;4953123;29;20079;-55
2022/05/27 02:12:04;;;;;;;4.63;3.00;;;18.40;99.90;;;;;;4953029;29;20086;-56
2022/05/27 02:14:49;;;;;;;7.40;3.83;;;18.30;99.90;;;;;;4953010;29;20047;-57
2022/05/27 02:17:21;;;;;;;7.07;3.10;;;18.20;99.90;;;;;;4953008;28;20150;-55
2022/05/27 02:20:02;;;;;;;;;;;18.40;99.90;;;;;;4953377;28;20475;-56
2022/05/27 02:22:32;;;;;;;7.60;3.25;;;18.50;99.90;;;;;;4953091;28;19997;-57
2022/05/27 02:25:08;;;;;;;5.85;3.40;;;18.40;99.90;;;;;;4952798;29;20052;-55
2022/05/27 02:27:45;;;;;;;6.70;3.40;;;18.20;99.90;;;;;;4921910;29;20066;-57
2022/05/27 02:30:14;;;;;;;6.90;3.83;;;18.20;99.90;;;;;;4952949;28;20056;-56
2022/05/27 02:35:07;;;;;;;7.40;3.40;;;18.30;99.90;;;;;;4952852;29;20455;-57
2022/05/27 02:35:44;;;;;;;10.18;3.55;;;18.30;99.90;;;;;;4952693;29;20082;-57
2022/05/27 02:38:10;;;;;;;5.10;3.50;;;18.20;99.90;;;;;;4952858;28;20046;-56
2022/05/27 02:40:47;;;;;;;5.88;3.00;;;18.20;99.90;;;;;;4952947;28;20047;-55
2022/05/27 02:43:21;;;;;;;6.80;3.72;;;18.40;99.90;;;;;;4940060;29;20077;-54
2022/05/27 02:45:56;;;;;;;8.23;3.20;;;18.50;99.90;;;;;;4981073;28;20064;-56
2022/05/27 02:48:32;;;;;;;7.28;5.10;;;18.50;99.90;;;;;;5036772;28;20083;-55
2022/05/27 02:51:16;;;;;;;8.07;3.80;;;18.60;99.90;;;;;;5036601;28;20389;-54
2022/05/27 02:54:00;;;;;;;6.57;3.38;;;18.60;99.90;;;;;;5036825;28;20111;-57
2022/05/27 02:57:00;;;;;;;4.53;3.03;;;18.50;99.90;;;;;;5036618;28;20105;-56
2022/05/27 02:59:26;;;;;;;5.93;3.33;;;18.60;99.90;;;;;;5034665;28;20040;-55
2022/05/27 03:01:52;;;;;;;5.82;3.42;;;18.60;99.90;;;;;;5036426;28;20037;-55
2022/05/27 03:04:19;;;;;;;8.18;3.33;;;18.70;99.90;;;;;;5036346;28;20090;-56
2022/05/27 03:07:07;;;;;;;7.70;4.13;;;18.80;99.90;;;;;;5036380;28;20044;-55
2022/05/27 03:09:53;;;;;;;6.45;3.22;;;18.90;99.90;;;;;;5036304;28;20037;-57
2022/05/27 03:12:44;;;;;;;4.55;2.60;;;19.10;99.90;;;;;;5036604;28;20034;-57
2022/05/27 03:15:50;;;;;;;7.55;3.13;;;19.10;99.90;;;;;;5036257;28;20564;-54
2022/05/27 03:18:28;;;;;;;7.40;3.50;;;19.20;99.90;;;;;;5036199;28;20033;-54
2022/05/27 03:20:56;;;;;;;6.32;3.17;;;19.30;99.90;;;;;;5036257;28;20120;-56
2022/05/27 03:23:34;;;;;;;5.10;3.42;;;19.20;99.90;;;;;;5035833;28;20049;-57
2022/05/27 03:26:27;;;;;;;6.88;3.13;;;19.30;99.90;;;;;;5036181;28;20043;-56
2022/05/27 03:29:23;;;;;;;8.57;4.03;;;19.30;99.90;;;;;;5035003;28;20029;-58
2022/05/27 03:31:58;;;;;;;6.13;3.42;;;18.80;99.90;;;;;;5035998;28;20366;-55
2022/05/27 03:34:49;;;;;;;8.95;4.10;;;18.70;99.90;;;;;;5035616;28;20049;-58
2022/05/27 03:37:34;;;;;;;9.15;3.35;;;18.80;99.90;;;;;;5035986;28;20033;-55
2022/05/27 03:40:36;;;;;;;5.90;3.63;;;18.90;99.90;;;;;;5035730;28;20389;-58
2022/05/27 03:43:03;;;;;;;5.32;3.22;;;19.10;99.90;;;;;;5000570;28;20033;-55
2022/05/27 03:45:29;;;;;;;9.45;3.65;;;18.90;99.90;;;;;;5016861;28;20076;-55
2022/05/27 03:47:54;;;;;;;7.60;3.63;;;18.80;99.90;;;;;;5033426;28;20068;-54
2022/05/27 03:50:24;;;;;;;8.77;3.60;;;18.70;99.90;;;;;;5000774;28;20037;-57
2022/05/27 03:52:52;;;;;;;8.25;3.70;;;18.60;99.90;;;;;;5033159;28;20033;-56
2022/05/27 03:55:21;;;;;;;6.03;3.70;;;18.60;99.90;;;;;;5033454;28;20040;-57
2022/05/27 03:57:48;;;;;;;7.30;3.65;;;18.40;99.90;;;;;;5033418;28;20105;-54
2022/05/27 04:00:14;;;;;;;7.00;3.60;;;18.30;99.90;;;;;;5033387;28;20062;-56
2022/05/27 04:02:41;;;;;;;8.60;3.58;;;18.40;99.90;;;;;;4996094;28;20081;-57
2022/05/27 04:05:09;;;;;;;5.97;3.78;;;18.20;99.90;;;;;;5032611;28;20037;-54
2022/05/27 04:07:35;;;;;;;5.82;3.60;;;18.30;99.90;;;;;;5033330;28;20038;-57
2022/05/27 04:10:01;;;;;;;4.85;3.10;;;18.60;99.90;;;;;;4994840;28;20034;-54
2022/05/27 04:12:26;;;;;;;9.02;4.00;;;18.90;99.90;;;;;;5033063;28;20713;-54
2022/05/27 04:14:53;;;;;;;8.90;3.40;;;19.00;99.90;;;;;;5000344;28;20099;-58
2022/05/27 04:17:30;;;;;;;7.15;2.90;;;19.00;99.90;;;;;;5028697;28;20501;-58
2022/05/27 04:19:56;;;;;;;5.47;3.30;;;19.10;99.90;;;;;;5022244;28;20088;-56
2022/05/27 04:22:22;;;;;;;7.90;3.55;;;19.30;99.90;;;;;;5015207;28;20055;-55
2022/05/27 04:24:48;;;;;;;6.45;3.67;;;19.30;99.90;;;;;;5029967;28;20585;-56
2022/05/27 04:27:16;;;;;;;7.32;3.33;;;19.30;99.90;;;;;;5015381;28;20428;-57
2022/05/27 04:29:43;;;;;;;6.75;3.17;;;19.30;99.90;;;;;;5015137;28;20028;-59
2022/05/27 04:32:10;;;;;;;5.63;2.70;;;19.40;99.90;;;;;;5029609;28;20393;-56
2022/05/27 04:34:36;;;;;;;8.70;3.95;;;19.50;99.90;;;;;;5034934;28;20025;-55
2022/05/27 04:37:02;;;;;;;8.55;3.67;;;19.50;99.90;;;;;;5034942;28;20025;-58
2022/05/27 04:39:28;;;;;;;10.63;3.00;;;19.60;99.90;;;;;;5033915;28;20513;-56
2022/05/27 04:41:54;;;;;;;10.60;3.17;;;19.60;99.90;;;;;;5034906;28;20033;-58
2022/05/27 04:44:20;;;;;;;6.72;3.30;;;19.70;99.90;;;;;;5034254;28;20034;-58
2022/05/27 04:46:45;;;;;;;7.28;3.50;;;19.90;99.90;;;;;;5034762;28;20100;-55
2022/05/27 04:51:58;;;;;;;5.35;3.28;;;20.10;99.90;;;;;;5034792;28;20052;-54
2022/05/27 04:54:25;;;;;;;6.65;3.25;;;20.10;99.90;;;;;;5033650;28;20029;-56
2022/05/27 04:56:51;;;;;;;9.98;4.25;;;20.20;99.90;;;;;;5034575;28;20033;-58
2022/05/27 04:59:17;;;;;;;6.78;4.40;;;20.30;99.90;;;;;;5034220;28;20084;-57
2022/05/27 05:01:43;;;;;;;5.43;3.25;;;20.10;99.90;;;;;;5032582;28;20043;-58
2022/05/27 05:04:08;;;;;;;6.88;3.83;;;20.20;99.90;;;;;;5031836;28;20037;-55
2022/05/27 05:06:34;;;;;;;6.68;3.40;;;20.00;99.90;;;;;;5005447;28;20042;-55
2022/05/27 05:09:00;;;;;;;6.05;3.00;;;20.20;99.90;;;;;;5029493;28;20385;-57
2022/05/27 05:11:26;;;;;;;8.05;2.85;;;19.90;99.90;;;;;;5015146;28;20041;-56
2022/05/27 05:13:51;;;;;;;10.23;2.85;;;19.80;99.90;;;;;;5033092;28;20045;-57
2022/05/27 05:16:17;;;;;;;5.93;3.10;;;20.00;99.90;;;;;;5034113;28;20036;-57
2022/05/27 05:18:43;;;;;;;4.30;2.92;;;20.30;99.90;;;;;;5034024;28;20034;-54
2022/05/27 05:21:09;;;;;;;4.88;2.83;;;20.40;99.90;;;;;;5032628;28;20397;-56
2022/05/27 05:23:34;;;;;;;5.57;3.90;;;20.40;99.90;;;;;;5031205;28;20046;-54
2022/05/27 05:26:00;;;;;;;11.07;3.13;;;20.50;99.90;;;;;;5032220;28;20049;-54
2022/05/27 05:28:26;;;;;;;4.88;2.40;;;20.70;99.90;;;;;;5032389;28;20040;-55
2022/05/27 05:30:51;;;;;;;4.93;2.78;;;21.00;99.90;;;;;;5029281;28;20588;-57
2022/05/27 05:33:17;;;;;;;6.78;2.85;;;21.20;99.90;;;;;;5028503;28;20021;-56
2022/05/27 05:35:43;;;;;;;4.97;3.03;;;21.60;99.90;;;;;;5029543;28;20087;-55
2022/05/27 05:38:09;;;;;;;4.88;2.90;;;21.80;99.90;;;;;;5023595;28;20143;-57
2022/05/27 05:40:36;;;;;;;5.13;2.53;;;22.10;99.90;;;;;;5024939;28;20462;-57
2022/05/27 05:43:03;;;;;;;4.88;2.60;;;;;;;;;;5021958;28;20014;-55
2022/05/27 05:45:29;;;;;;;4.82;2.55;;;22.50;99.90;;;;;;5023497;28;20026;-56
2022/05/27 05:47:54;;;;;;;5.70;2.80;;;22.60;99.90;;;;;;5031192;28;20574;-55
2022/05/27 05:50:20;;;;;;;3.63;2.58;;;22.60;99.90;;;;;;5013832;28;20100;-56
2022/05/27 05:52:46;;;;;;;3.03;2.10;;;22.30;99.90;;;;;;5013749;28;20022;-54
2022/05/27 05:55:13;;;;;;;4.07;2.63;;;22.50;99.90;;;;;;5013737;28;20022;-57
2022/05/27 05:57:41;;;;;;;4.03;2.33;;;22.60;99.90;;;;;;5020006;28;20041;-55
2022/05/27 06:00:09;;;;;;;4.18;2.30;;;23.00;99.90;;;;;;5028730;28;20389;-56
2022/05/27 06:02:35;;;;;;;4.55;2.40;;;22.80;99.90;;;;;;5043542;28;20034;-57
2022/05/27 06:05:03;;;;;;;5.45;2.55;;;23.10;99.90;;;;;;5013891;28;20037;-54
2022/05/27 06:07:30;;;;;;;5.22;2.35;;;23.40;99.90;;;;;;5038751;28;20072;-58
2022/05/27 06:09:57;;;;;;;4.82;2.17;;;23.40;99.90;;;;;;5033449;28;20033;-56
2022/05/27 06:12:24;;;;;;;4.18;2.60;;;23.40;99.90;;;;;;5033218;28;20034;-57
2022/05/27 06:14:51;;;;;;;7.78;3.15;;;23.40;99.90;;;;;;5033167;28;20530;-55
2022/05/27 06:17:16;;;;;;;6.53;2.25;;;23.40;99.90;;;;;;5035868;28;20066;-55
2022/05/27 06:19:42;;;;;;;6.13;2.38;;;23.50;99.90;;;;;;5037262;28;20028;-54
2022/05/27 06:22:08;;;;;;;3.15;2.10;;;;;;;;;;5024797;28;20059;-53
2022/05/27 06:24:34;;;;;;;6.32;1.95;;;23.70;99.90;;;;;;5017220;28;20046;-55
2022/05/27 06:27:00;;;;;;;6.75;3.00;;;23.50;99.90;;;;;;5023228;28;20049;-55
2022/05/27 06:34:55;;;;;;;5.05;2.38;;;;;;;;;;5017261;28;20068;-57
2022/05/27 06:37:21;;;;;;;4.28;2.10;;;;;;;;;;5026120;28;20029;-58
2022/05/27 06:39:48;;;;;;;5.22;2.35;;;;;;;;;;5037029;28;20057;-55
2022/05/27 06:42:15;;;;;;;4.15;2.00;;;;;;;;;;5034157;28;20037;-58
2022/05/27 06:44:41;;;;;;;2.42;1.92;;;;;;;;;;5036675;28;20543;-58
2022/05/27 06:47:09;;;;;;;4.72;2.03;;;;;;;;;;5036933;28;20381;-58
2022/05/27 06:49:36;;;;;;;3.85;2.28;;;;;;;;;;5036950;28;20022;-57
2022/05/27 06:52:03;;;;;;;2.80;1.70;;;;;;;;;;5036823;28;20030;-58
2022/05/27 06:54:29;;;;;;;3.60;1.88;;;;;;;;;;5035847;28;20052;-55
2022/05/27 06:56:55;;;;;;;4.35;1.98;;;;;;;;;;5036752;28;20038;-61
2022/05/27 06:59:22;;;;;;;2.90;1.73;;;;;;;;;;5049060;28;20045;-60
2022/05/27 07:01:49;;;;;;;4.85;3.00;;;;;;;;;;5029212;28;20033;-57
2022/05/27 07:04:17;;;;;;;6.47;3.05;;;;;;;;;;5026918;28;20081;-59
2022/05/27 07:06:45;;;;;;;4.95;2.75;;;;;;;;;;5040568;28;20129;-56
2022/05/27 07:09:12;;;;;;;4.57;2.40;;;;;;;;;;5033285;28;20025;-59
2022/05/27 07:11:39;;;;;;;6.85;2.70;;;;;;;;;;5034547;28;20076;-58
2022/05/27 07:14:05;;;;;;;6.93;3.13;;;;;;;;;;5034158;28;20568;-55
2022/05/27 07:16:31;;;;;;;9.80;2.90;;;;;;;;;;5023685;28;20112;-59
2022/05/27 07:18:58;;;;;;;4.47;2.88;;;;;;;;;;4967155;28;20399;-57
2022/05/27 07:21:25;;;;;;;5.40;2.33;;;;;;;;;;4969791;28;20134;-55
2022/05/27 07:23:55;;;;;;;5.32;2.42;;;;;;;;;;4974871;28;20051;-61
2022/05/27 07:26:21;;;;;;;6.65;3.47;;;;;;;;;;4974631;28;20427;-57
2022/05/27 07:28:48;;;;;;;6.18;2.40;;;;;;;;;;4970323;28;20131;-58
2022/05/27 07:31:17;;;;;;;4.90;2.20;;;;;;;;;;4963264;28;20077;-56
2022/05/27 07:33:43;;;;;;;3.35;1.98;;;;;;;;;;4955935;29;20411;-54
2022/05/27 07:36:09;;;;;;;3.75;2.13;;;;;;;;;;4961522;28;20061;-57
2022/05/27 07:38:35;;;;;;;6.32;2.10;;;;;;;;;;4938902;28;20042;-56
2022/05/27 07:41:01;;;;;;;6.68;2.47;;;;;;;;;;4974389;28;20038;-58
2022/05/27 07:43:27;;;;;;;4.05;2.40;;;;;;;;;;4958638;28;20175;-54
2022/05/27 07:45:53;;;;;;;4.05;2.40;;;;;;;;;;4991262;28;20038;-58
2022/05/27 07:48:19;;;;;;;5.20;2.35;;;;;;;;;;4994387;28;20038;-58
2022/05/27 07:50:46;;;;;;;5.90;2.25;;;;;;;;;;5016345;28;20432;-59
2022/05/27 07:53:12;;;;;;;4.03;2.20;;;;;;;;;;5035345;28;20462;-57
2022/05/27 07:55:38;;;;;;;7.05;2.63;;;;;;;;;;5034718;28;20049;-59
2022/05/27 07:58:04;;;;;;;12.02;4.20;;;27.50;99.90;;;;;;5050522;28;20048;-56
2022/05/27 08:00:32;;;;;;;6.50;3.65;;;;;;;;;;5016119;28;20069;-58
2022/05/27 08:02:59;;;;;;;6.68;3.15;;;;;;;;;;5035255;28;20378;-57
2022/05/27 08:05:26;;;;;;;7.90;2.67;;;;;;;;;;5029202;28;20070;-59
2022/05/27 08:07:54;;;;;;;4.38;2.72;;;;;;;;;;5029148;28;20053;-54
2022/05/27 08:10:23;;;;;;;8.27;2.60;;;27.90;98.70;;;;;;5026622;28;20037;-61
2022/05/27 08:12:49;;;;;;;6.60;2.45;;;;;;;;;;5028522;28;20114;-58
2022/05/27 08:15:15;;;;;;;6.15;2.45;;;;;;;;;;5035146;28;20025;-59
2022/05/27 08:17:42;;;;;;;8.70;2.80;;;;;;;;;;5035037;28;20026;-56
2022/05/27 08:20:10;;;;;;;3.92;2.28;;;;;;;;;;5035026;28;20037;-54
2022/05/27 08:22:36;;;;;;;4.55;2.65;;;;;;;;;;5035080;28;20342;-55
2022/05/27 08:25:02;;;;;;;5.47;2.10;;;;;;;;;;5030079;28;20046;-52
2022/05/27 08:27:28;;;;;;;3.20;1.92;;;;;;;;;;5032072;28;20021;-52
2022/05/27 08:29:54;;;;;;;3.75;1.90;;;;;;;;;;5027280;28;20105;-52
2022/05/27 08:32:21;;;;;;;3.65;1.75;;;;;;;;;;5025141;28;20033;-59
2022/05/27 08:40:32;;;;;;;3.17;1.90;;;;;;;;;;5026638;28;20432;-59
2022/05/27 08:42:58;;;;;;;;;;;;;;;;;;5032938;28;20035;-53
2022/05/27 08:45:37;;;;;;;2.35;1.45;;;;;;;;;;5033532;28;20003;-55
2022/05/27 08:48:10;;;;;;;3.28;1.30;;;;;;;;;;5023932;28;20026;-59
2022/05/27 08:50:42;;;;;;;4.43;1.70;;;;;;;;;;5034767;28;20424;-56
2022/05/27 08:53:45;;;;;;;3.33;1.45;;;28.80;92.40;;;;;;5032035;28;20552;-55
2022/05/27 08:59:27;;;;;;;2.83;1.30;;;28.80;92.10;;;;;;5020650;28;20443;-53
2022/05/27 09:02:04;;;;;;;3.17;1.35;;;28.90;92.50;;;;;;5007345;28;20048;-53
2022/05/27 09:05:03;;;;;;;3.28;1.40;;;28.50;92.00;;;;;;5018600;28;20038;-50
2022/05/27 09:07:35;;;;;;;2.30;1.60;;;28.70;92.00;;;;;;5029181;28;20441;-56
2022/05/27 09:10:04;;;;;;;5.32;1.67;;;;;;;;;;5033329;28;20112;-56
2022/05/27 09:12:38;;;;;;;4.45;1.70;;;29.60;91.90;;;;;;5013443;28;20046;-54
2022/05/27 09:15:32;;;;;;;3.20;1.45;;;29.40;92.30;;;;;;5021876;28;20025;-55
2022/05/27 09:18:26;;;;;;;6.28;2.65;;;29.90;94.40;;;;;;5026066;28;20026;-57
2022/05/27 09:21:10;;;;;;;2.15;1.50;;;29.20;91.70;;;;;;5029748;28;20432;-56
2022/05/27 09:23:58;;;;;;;4.05;1.42;;;29.20;91.40;;;;;;5031071;28;20568;-57
2022/05/27 09:26:31;;;;;;;4.28;1.92;;;;;;;;;;5031552;28;20041;-57
2022/05/27 09:29:09;;;;;;;2.00;1.35;;;;;;;;;;5031865;28;20036;-54
2022/05/27 09:31:41;;;;;;;3.08;1.40;;;29.50;90.70;;;;;;5031536;28;20076;-54
2022/05/27 09:34:10;;;;;;;3.60;1.80;;;29.90;91.70;;;;;;5019435;28;20529;-54
2022/05/27 09:36:41;;;;;;;6.70;1.52;;;30.40;92.70;;;;;;5011470;28;20065;-58
2022/05/27 09:39:10;;;;;;;3.90;1.70;;;30.20;95.30;;;;;;5020982;28;20041;-56
2022/05/27 09:41:55;;;;;;;2.55;1.58;;;29.90;93.90;;;;;;5021396;28;20026;-54
2022/05/27 09:44:26;;;;;;;2.15;1.58;;;30.20;94.10;;;;;;5028412;28;20057;-56
2022/05/27 09:46:52;;;;;;;2.42;1.60;;;31.20;94.40;;;;;;5029971;28;20080;-56
2022/05/27 09:49:18;;;;;;;2.60;1.67;;;30.20;95.70;;;;;;5031382;28;20053;-56
2022/05/27 09:51:44;;;;;;;2.80;1.40;;;30.40;95.30;;;;;;4998082;28;20692;-57
2022/05/27 09:54:18;;;;;;;2.25;1.60;;;;;;;;;;5014875;28;20037;-54
2022/05/27 09:56:56;;;;;;;4.53;1.58;;;;;;;;;;5030340;28;20068;-55
2022/05/27 09:59:25;;;;;;;3.53;1.98;;;30.60;91.20;;;;;;5014125;28;20044;-55
2022/05/27 10:01:51;;;;;;;4.13;1.60;;;31.10;98.30;;;;;;5026320;28;20042;-55
2022/05/27 10:04:18;;;;;;;5.80;1.70;;;;;;;;;;5033113;28;20048;-56
2022/05/27 10:06:44;;;;;;;2.72;1.40;;;;;;;;;;5027896;28;20116;-54
2022/05/27 10:09:24;;;;;;;5.53;1.38;;;;;;;;;;5031266;28;20190;-55
2022/05/27 10:11:52;;;;;;;2.67;1.50;;;;;;;;;;5024066;28;20509;-56
2022/05/27 10:14:28;;;;;;;3.42;1.52;;;;;;;;;;5031209;28;20121;-55
2022/05/27 10:17:11;;;;;;;5.50;1.60;;;;;;;;;;5030836;28;20034;-56
2022/05/27 10:19:38;;;;;;;3.13;1.55;;;;;;;;;;5031112;28;20068;-54
2022/05/27 10:22:06;;;;;;;2.40;1.33;;;;;;;;;;5031121;28;20394;-55
2022/05/27 10:24:36;;;;;;;2.47;1.20;;;;;;;;;;5030929;28;20129;-57
2022/05/27 10:27:07;;;;;;;4.70;1.67;;;;;;;;;;5026892;28;20041;-55
2022/05/27 10:29:35;;;;;;;3.50;1.60;;;;;;;;;;5022504;28;20040;-53
2022/05/27 10:32:02;;;;;;;4.30;1.55;;;32.20;86.60;;;;;;5012890;28;20022;-57
2022/05/27 10:34:43;;;;;;;4.93;1.40;;;32.20;86.00;;;;;;5029575;28;20092;-56
2022/05/27 10:37:33;;;;;;;2.33;1.50;;;;;;;;;;5031122;28;20044;-55
2022/05/27 10:40:01;;;;;;;1.70;1.30;;;;;;;;;;5029279;28;20033;-57
2022/05/27 10:42:58;;;;;;;2.17;1.20;;;;;;;;;;5022233;28;20041;-57
2022/05/27 10:45:43;;;;;;;4.28;1.48;;;32.20;86.70;;;;;;4982216;28;20053;-55
2022/05/27 10:48:20;;;;;;;2.22;1.50;;;32.30;85.90;;;;;;4991597;28;20073;-56
2022/05/27 10:51:02;;;;;;;4.25;1.50;;;32.70;86.20;;;;;;4991518;28;20046;-56
2022/05/27 10:53:59;;;;;;;3.95;1.65;;;32.60;84.80;;;;;;4984387;28;20022;-56
2022/05/27 10:56:33;;;;;;;3.00;1.42;;;32.50;84.30;;;;;;4973212;28;20030;-55
2022/05/27 11:02:13;;;;;;;2.65;1.52;;;;;;;;;;4983265;28;20045;-54
2022/05/27 11:04:51;;;;;;;5.15;1.80;;;;;;;;;;4978841;28;20038;-55
2022/05/27 11:07:38;;;;;;;5.28;1.75;;;31.10;87.60;;;;;;4993494;28;20022;-56
2022/05/27 11:10:35;;;;;;;3.45;1.80;;;31.30;90.50;;;;;;4986530;28;20478;-54
2022/05/27 11:16:13;;;;;;;8.07;2.35;;;32.40;96.50;;;;;;4993222;28;20069;-57
2022/05/27 11:19:30;;;;;;;9.40;2.20;;;32.70;95.00;;;;;;4994979;28;20030;-55
2022/05/27 11:22:18;;;;;;;7.03;1.98;;;32.50;95.80;;;;;;5005786;28;20117;-57
2022/05/27 11:25:06;;;;;;;7.68;2.47;;;33.10;96.80;;;;;;5014172;28;20049;-55
2022/05/27 11:27:44;;;;;;;3.78;1.73;;;32.90;83.90;;;;;;5014166;28;20606;-55
2022/05/27 11:30:33;;;;;;;4.28;1.70;;;33.10;83.70;;;;;;5014303;28;20038;-55
2022/05/27 11:33:40;;;;;;;5.85;1.80;;;33.30;83.70;;;;;;5014165;28;20045;-54
2022/05/27 11:36:13;;;;;;;4.95;2.25;;;33.00;82.90;;;;;;5014006;28;20077;-56
2022/05/27 11:39:06;;;;;;;5.32;2.10;;;33.30;84.70;;;;;;4997717;28;20057;-54
2022/05/27 11:41:49;;;;;;;5.25;1.80;;;33.40;84.20;;;;;;5013999;28;20117;-54
2022/05/27 11:44:42;;;;;;;6.15;1.70;;;33.60;82.70;;;;;;5013880;28;20073;-57
2022/05/27 11:47:41;;;;;;;8.15;2.25;;;33.20;83.50;;;;;;5013824;28;20029;-55
2022/05/27 11:50:23;;;;;;;7.63;2.10;;;34.00;84.00;;;;;;5013863;28;20022;-55
2022/05/27 11:53:06;;;;;;;6.72;1.98;;;34.50;83.60;;;;;;5008002;28;20073;-56
2022/05/27 11:55:56;;;;;;;4.85;2.17;;;34.70;83.40;;;;;;5002618;28;20026;-55
2022/05/27 11:58:44;;;;;;;7.30;1.90;;;33.60;82.70;;;;;;5034901;28;20041;-52
2022/05/27 12:01:31;;;;;;;6.20;2.30;;;33.90;83.10;;;;;;5053115;28;20040;-54
2022/05/27 12:04:12;;;;;;;4.45;1.77;;;33.90;82.50;;;;;;5053156;28;20052;-53
2022/05/27 12:06:54;;;;;;;6.03;2.47;;;34.20;82.00;;;;;;5050852;28;20033;-54
2022/05/27 12:09:19;;;;;;;;;;;34.40;83.90;;;;;;5032516;28;20492;-53
2022/05/27 12:12:15;;;;;;;4.57;1.73;;;34.50;81.60;;;;;;5046436;28;19970;-51
2022/05/27 12:15:04;;;;;;;4.50;1.98;;;34.60;81.40;;;;;;4986717;28;20046;-52
2022/05/27 12:17:44;;;;;;;7.93;2.42;;;34.30;81.90;;;;;;4990380;28;20045;-53
2022/05/27 12:20:17;;;;;;;5.00;2.30;;;34.80;83.00;;;;;;4990281;28;20045;-53
2022/05/27 12:22:47;;;;;;;8.77;2.45;;;34.80;82.50;;;;;;4991431;28;20142;-53
2022/05/27 12:25:18;;;;;;;4.38;2.45;;;35.00;83.00;;;;;;4988246;28;20066;-53
2022/05/27 12:27:44;;;;;;;4.68;2.20;;;35.20;83.40;;;;;;4992043;28;20026;-52
2022/05/27 12:30:13;;;;;;;6.38;2.30;;;35.20;81.40;;;;;;4990635;28;20041;-54
2022/05/27 12:32:41;;;;;;;7.80;2.55;;;;;;;;;;4993639;28;20039;-54
2022/05/27 12:35:43;;;;;;;4.88;2.53;;;35.30;93.80;;;;;;4990826;28;20529;-53
2022/05/27 12:38:29;;;;;;;5.05;2.15;;;35.20;94.00;;;;;;4989853;28;20030;-55
2022/05/27 12:41:00;;;;;;;4.78;2.35;;;35.20;93.70;;;;;;4991768;28;20041;-52
2022/05/27 12:43:31;;;;;;;9.88;2.20;;;35.40;94.60;;;;;;4973220;28;20169;-53
2022/05/27 12:46:00;;;;;;;6.10;2.00;;;35.60;93.70;;;;;;4991734;28;20109;-52
2022/05/27 12:48:35;;;;;;;4.72;2.40;;;35.80;93.70;;;;;;4991432;28;20121;-55
2022/05/27 12:51:03;;;;;;;7.25;2.28;;;34.50;93.20;;;;;;4994407;28;20062;-50
2022/05/27 12:53:44;;;;;;;5.50;2.10;;;;;;;;;;5045789;28;20030;-56
2022/05/27 13:02:22;;;;;;;3.97;2.25;;;;;;;;;;5033481;28;20064;-59
2022/05/27 13:04:55;;;;;;;9.25;3.50;;;;;;;;;;5029329;28;20547;-52
2022/05/27 13:07:33;;;;;;;6.88;2.80;;;;;;;;;;5033589;28;20048;-54
2022/05/27 13:10:18;;;;;;;13.70;3.90;;;;;;;;;;5032370;28;20493;-52
2022/05/27 13:12:47;;;;;;;14.07;3.58;;;;;;;;;;5029819;28;20060;-52
2022/05/27 13:15:23;;;;;;;4.15;2.70;;;;;;;;;;5035020;28;20028;-53
2022/05/27 13:18:09;;;;;;;27.85;6.32;;;;;;;;;;5028386;28;20421;-53
2022/05/27 13:20:54;;;;;;;8.60;2.88;;;;;;;;;;5031096;28;20089;-53
2022/05/27 13:23:24;;;;;;;5.05;2.60;;;36.00;97.30;;;;;;5033192;28;20032;-53
2022/05/27 13:26:14;;;;;;;4.45;2.42;;;36.10;91.70;;;;;;5028974;28;20021;-53
2022/05/27 13:28:51;;;;;;;7.43;2.65;;;35.90;91.00;;;;;;5020400;28;20046;-53
2022/05/27 13:31:27;;;;;;;10.32;2.78;;;;;;;;;;5053544;28;20095;-53
2022/05/27 13:34:00;;;;;;;6.30;2.63;;;36.60;80.80;;;;;;5038252;28;20433;-53
2022/05/27 13:36:33;;;;;;;6.20;3.20;;;34.40;81.60;;;;;;5033363;28;20064;-54
2022/05/27 13:39:10;;;;;;;5.45;2.50;;;34.90;82.00;;;;;;5036968;28;20052;-55
2022/05/27 13:41:46;;;;;;;5.20;2.58;;;34.40;81.70;;;;;;5030609;28;20083;-54
2022/05/27 13:44:16;;;;;;;6.32;3.60;;;34.10;83.10;;;;;;5035705;28;20041;-54
2022/05/27 13:46:49;;;;;;;10.27;2.97;;;34.50;83.30;;;;;;5034413;28;20067;-54
2022/05/27 13:49:30;;;;;;;5.38;2.50;;;34.40;83.20;;;;;;5032417;28;20390;-54
2022/05/27 13:51:57;;;;;;;9.93;2.70;;;34.40;82.10;;;;;;5013019;28;20085;-54
2022/05/27 13:54:34;;;;;;;9.60;3.20;;;;;;;;;;5017775;28;20034;-54
2022/05/27 13:57:06;;;;;;;7.80;3.38;;;34.80;82.00;;;;;;5018051;28;20076;-54
2022/05/27 13:59:41;;;;;;;4.70;3.03;;;34.50;81.60;;;;;;5019354;28;20104;-54
2022/05/27 14:02:20;;;;;;;6.70;2.80;;;34.60;82.60;;;;;;5015975;28;20084;-54
2022/05/27 14:04:57;;;;;;;11.73;3.17;;;34.40;81.60;;;;;;5015933;28;20124;-54
2022/05/27 14:07:44;;;;;;;5.97;2.90;;;34.50;81.30;;;;;;5002717;28;20103;-54
2022/05/27 14:10:29;;;;;;;9.48;2.83;;;34.70;82.40;;;;;;5018880;28;20029;-54
2022/05/27 14:12:57;;;;;;;8.23;2.63;;;34.80;82.90;;;;;;5017572;28;20042;-54
2022/05/27 14:15:28;;;;;;;8.70;2.95;;;35.00;83.10;;;;;;5020088;28;20038;-54
2022/05/27 14:17:56;;;;;;;6.50;2.42;;;;;;;;;;5022299;28;20049;-54